Time;durP1;ratioP1;P1;durP2;ratioP2;P2;SDS_P1;SDS_P2;PMS_P1;PMS_P2;Temp;Humidity;BMP_temperature;BMP_pressure;BME280_temperature;BME280_humidity;BME280_pressure;Samples;Min_cycle;Max_cycle;Signal;HPM_P1;HPM_P2
2022/11/27 00:01:26;;;;;;;24.60;11.90;;;;;;;-3.11;66.83;101205.97;6121312;23;20024;-96
2022/11/27 00:03:54;;;;;;;27.67;11.50;;;;;;;-2.84;66.99;101257.31;6142743;23;20336;-96
2022/11/27 00:06:23;;;;;;;23.33;10.75;;;;;;;-2.80;67.21;101266.66;6142784;23;20047;-95
2022/11/27 00:11:24;;;;;;;26.77;11.35;;;;;;;-2.33;66.62;101300.47;6193137;23;20033;-95
2022/11/27 00:13:51;;;;;;;29.20;12.32;;;;;;;-2.18;65.80;101308.56;6163059;23;20024;-93
2022/11/27 00:16:19;;;;;;;24.70;11.40;;;;;;;-2.64;65.37;101226.38;6143982;23;20040;-96
2022/11/27 00:18:47;;;;;;;23.45;10.75;;;;;;;-1.91;65.76;101347.34;6145142;23;20028;-96
2022/11/27 00:21:21;;;;;;;16.52;8.95;;;;;;;-2.64;66.31;101263.03;6153867;23;20072;-93
2022/11/27 00:23:48;;;;;;;23.67;11.27;;;;;;;-2.73;66.14;101227.44;6171047;23;20037;-94
2022/11/27 00:26:14;;;;;;;25.02;10.90;;;;;;;-2.65;66.00;101245.28;6147368;23;20111;-95
2022/11/27 00:28:42;;;;;;;24.05;11.40;;;;;;;-2.27;66.20;101307.78;6146037;23;20096;-94
2022/11/27 00:31:13;;;;;;;29.08;11.73;;;;;;;-2.54;66.21;101274.34;6144153;23;20051;-95
2022/11/27 00:33:39;;;;;;;23.48;11.77;;;;;;;-2.67;66.35;101272.25;6145224;23;20029;-94
2022/11/27 00:36:10;;;;;;;26.58;12.50;;;;;;;-2.51;66.28;101265.94;6145009;23;20417;-96
2022/11/27 00:38:37;;;;;;;28.08;12.27;;;;;;;-2.29;66.39;101306.28;6119389;23;20119;-95
2022/11/27 00:41:08;;;;;;;23.95;11.02;;;;;;;-2.90;66.83;101224.06;6144610;23;20017;-95
2022/11/27 00:43:36;;;;;;;22.08;10.50;;;;;;;-2.94;66.74;101211.22;6143568;23;20016;-94
2022/11/27 00:46:03;;;;;;;20.73;10.63;;;;;;;-2.62;66.64;101272.56;6141001;23;20147;-96
2022/11/27 00:51:01;;;;;;;22.58;10.85;;;;;;;-2.79;66.66;101204.06;6204554;23;20005;-95
2022/11/27 00:53:27;;;;;;;22.27;10.52;;;;;;;-2.42;66.73;101298.84;6162557;23;20011;-94
2022/11/27 00:55:55;;;;;;;27.70;11.68;;;;;;;-2.51;67.23;101287.38;6164458;23;20028;-96
2022/11/27 00:58:24;;;;;;;24.70;11.55;;;;;;;-3.04;67.61;101208.78;6164019;23;20028;-95
2022/11/27 01:00:54;;;;;;;;;;;;;;;-2.23;67.78;101316.28;6165237;23;20000;-95
2022/11/27 01:03:21;;;;;;;21.05;10.40;;;;;;;-2.95;67.25;101193.50;6159092;23;19947;-96
2022/11/27 01:05:49;;;;;;;24.23;10.55;;;;;;;-2.44;67.64;101282.97;6179922;23;20039;-95
2022/11/27 01:08:21;;;;;;;24.90;11.93;;;;;;;-2.44;67.21;101272.25;6147678;23;20017;-94
2022/11/27 01:10:57;;;;;;;28.88;11.27;;;;;;;-2.65;67.40;101248.81;6144218;23;20015;-94
2022/11/27 01:13:32;;;;;;;25.95;13.35;;;;;;;-2.84;67.20;101230.56;6109180;23;20024;-95
2022/11/27 01:16:17;;;;;;;29.23;12.80;;;;;;;-3.22;67.66;101194.84;6107728;23;20647;-95
2022/11/27 01:18:45;;;;;;;30.58;13.02;;;;;;;-2.98;68.08;101224.13;6100126;23;20006;-94
2022/11/27 01:21:15;;;;;;;25.48;12.30;;;;;;;-2.64;68.35;101308.56;6080979;23;20021;-95
2022/11/27 01:23:45;;;;;;;26.23;13.02;;;;;;;-3.05;68.47;101230.34;6091035;23;20026;-96
2022/11/27 01:26:23;;;;;;;26.67;13.20;;;;;;;-2.92;68.10;101223.41;6084986;23;20180;-95
2022/11/27 01:28:52;;;;;;;;;;;;;;;-2.18;67.88;101330.81;6084270;23;20013;-96
2022/11/27 01:31:22;;;;;;;30.10;12.07;;;;;;;-3.08;67.87;101205.63;6084321;23;20303;-95
2022/11/27 01:34:02;;;;;;;37.72;15.10;;;;;;;-2.37;68.31;101333.97;6062488;23;20025;-95
2022/11/27 01:36:30;;;;;;;38.72;15.38;;;;;;;-3.08;68.34;101188.72;6103027;23;20025;-95
2022/11/27 01:38:59;;;;;;;34.72;15.85;;;;;;;-2.96;68.14;101200.69;6054684;23;20104;-96
2022/11/27 01:41:30;;;;;;;;;;;;;;;-2.43;68.57;101323.97;6033363;23;20026;-96
2022/11/27 01:44:00;;;;;;;26.52;12.00;;;;;;;-3.05;68.74;101203.59;6049790;23;19940;-95
2022/11/27 01:46:47;;;;;;;28.13;13.02;;;;;;;-2.79;68.62;101244.22;6111515;23;20017;-95
2022/11/27 01:49:35;;;;;;;33.28;13.25;;;;;;;-2.74;68.10;101267.81;6081018;23;20014;-95
2022/11/27 01:52:19;;;;;;;22.33;10.88;;;;;;;-2.49;68.34;101277.31;6080350;23;20472;-96
2022/11/27 01:55:07;;;;;;;23.95;11.63;;;;;;;-2.44;67.68;101252.69;6078763;23;20024;-94
2022/11/27 01:57:48;;;;;;;22.85;10.98;;;;;;;-2.27;67.38;101272.94;6078615;23;20379;-94
2022/11/27 02:00:17;;;;;;;29.55;11.80;;;;;;;-2.06;67.24;101293.69;6072950;23;20028;-94
2022/11/27 02:02:45;;;;;;;26.17;11.13;;;;;;;-2.63;67.22;101205.78;6082587;23;20017;-95
2022/11/27 02:05:14;;;;;;;;;;;;;;;-1.86;67.05;101330.72;6058604;23;20018;-96
2022/11/27 02:07:41;;;;;;;23.15;11.45;;;;;;;-2.55;67.05;101234.34;6081719;23;20007;-95
2022/11/27 02:10:07;;;;;;;22.98;10.77;;;;;;;-2.71;67.61;101219.25;6061281;23;20032;-95
2022/11/27 02:15:37;;;;;;;23.40;11.80;;;;;;;-2.36;68.36;101280.22;6143563;23;20029;-94
2022/11/27 02:18:32;;;;;;;28.48;11.45;;;;;;;-2.74;67.80;101207.06;6115067;23;20474;-94
2022/11/27 02:21:16;;;;;;;30.20;12.07;;;;;;;-2.55;67.89;101204.88;6114461;23;20048;-95
2022/11/27 02:24:04;;;;;;;24.60;11.45;;;;;;;-2.38;67.38;101228.69;6116064;23;20532;-96
2022/11/27 02:26:45;;;;;;;28.02;11.95;;;;;;;-1.60;67.60;101346.38;6123026;23;20040;-94
2022/11/27 02:29:16;;;;;;;24.75;11.30;;;;;;;-1.86;67.35;101307.41;6138941;23;20087;-95
2022/11/27 02:31:50;;;;;;;22.92;11.43;;;;;;;-1.69;67.68;101346.47;6138222;23;20044;-96
2022/11/27 02:34:46;;;;;;;28.77;10.07;;;;;;;-2.50;67.70;101211.38;6164286;23;20021;-95
2022/11/27 02:37:25;;;;;;;22.33;10.30;;;;;;;-2.24;67.68;101279.81;6082349;23;20041;-95
2022/11/27 02:40:02;;;;;;;23.55;11.00;;;;;;;-2.38;67.94;101241.25;6139186;23;20087;-95
2022/11/27 02:45:05;;;;;;;26.30;10.48;;;;;;;-1.91;67.31;101313.31;6180796;23;20067;-94
2022/11/27 02:47:32;;;;;;;21.55;9.57;;;;;;;-2.21;66.85;101245.44;6140695;23;20055;-94
2022/11/27 02:50:01;;;;;;;26.00;11.60;;;;;;;-2.18;66.97;101261.16;6140744;23;20025;-96
2022/11/27 02:52:32;;;;;;;19.38;9.80;;;;;;;-2.19;66.98;101264.81;6166569;23;20025;-95
2022/11/27 02:57:31;;;;;;;24.13;10.38;;;;;;;-2.04;66.78;101288.16;6192458;23;20020;-96
2022/11/27 02:59:59;;;;;;;20.95;9.98;;;;;;;-1.61;66.53;101328.63;6155445;23;20025;-92
2022/11/27 03:02:32;;;;;;;21.48;10.18;;;;;;;-2.27;66.52;101253.38;6152631;23;20043;-94
2022/11/27 03:05:02;;;;;;;18.55;9.40;;;;;;;-1.95;66.63;101313.88;6154742;23;20439;-92
2022/11/27 03:07:39;;;;;;;22.75;10.18;;;;;;;-2.25;66.47;101245.97;6160056;23;20024;-94
2022/11/27 03:10:11;;;;;;;22.90;10.20;;;;;;;-2.08;66.12;101258.22;6163555;23;20001;-94
2022/11/27 03:12:45;;;;;;;18.23;8.73;;;;;;;-2.17;65.71;101276.22;6138101;23;20034;-95
2022/11/27 03:15:12;;;;;;;17.13;8.93;;;;;;;-2.35;66.32;101262.31;6122387;23;20021;-94
2022/11/27 03:18:17;;;;;;;19.13;8.80;;;;;;;-2.39;66.43;101250.28;6141156;23;20023;-94
2022/11/27 03:27:40;;;;;;;18.75;8.82;;;;;;;-2.23;65.29;101246.63;6028167;23;20023;-95
2022/11/27 03:30:13;;;;;;;20.65;9.20;;;;;;;-1.72;65.30;101322.72;6020107;23;20019;-95
2022/11/27 03:32:44;;;;;;;19.42;9.68;;;;;;;-2.03;65.04;101268.38;6041592;23;20075;-95
2022/11/27 03:35:16;;;;;;;16.05;8.40;;;;;;;-1.62;65.08;101341.22;5975594;23;20019;-95
2022/11/27 03:40:13;;;;;;;19.88;9.35;;;;;;;-1.85;65.43;101290.31;5972572;23;20019;-94
2022/11/27 03:42:57;;;;;;;13.18;6.90;;;;;;;-1.38;64.70;101366.94;6019695;23;20023;-95
2022/11/27 03:45:36;;;;;;;18.13;9.00;;;;;;;-1.29;65.03;101365.84;5997450;23;20027;-96
2022/11/27 03:48:37;;;;;;;20.38;9.45;;;;;;;-1.32;64.41;101366.22;5978569;23;20050;-95
2022/11/27 03:51:31;;;;;;;18.23;8.68;;;;;;;-2.08;64.50;101246.69;6047231;23;20106;-94
2022/11/27 03:54:14;;;;;;;18.85;7.80;;;;;;;-2.27;64.42;101237.31;5973806;23;20112;-94
2022/11/27 03:56:45;;;;;;;17.75;8.82;;;;;;;-2.21;65.00;101241.94;6018040;23;20074;-94
2022/11/27 03:59:31;;;;;;;21.63;9.05;;;;;;;-1.57;64.46;101330.75;6078196;23;20014;-94
2022/11/27 04:01:57;;;;;;;17.92;8.70;;;;;;;-1.79;64.80;101286.88;6057931;23;20026;-95
2022/11/27 04:04:25;;;;;;;17.92;8.50;;;;;;;-1.87;64.84;101286.16;6132214;23;20032;-95
2022/11/27 04:06:57;;;;;;;19.80;8.93;;;;;;;-1.24;64.74;101359.91;6144668;23;20017;-95
2022/11/27 04:09:27;;;;;;;17.80;9.27;;;;;;;-1.58;63.94;101307.66;6168522;23;20021;-93
2022/11/27 04:12:23;;;;;;;18.55;8.07;;;;;;;-1.42;64.52;101360.28;6155539;23;20024;-94
2022/11/27 04:14:51;;;;;;;19.90;9.15;;;;;;;-2.11;64.82;101252.41;6174373;23;20017;-95
2022/11/27 04:19:59;;;;;;;18.40;8.55;;;;;;;-2.16;65.76;101287.75;6200866;23;20132;-96
2022/11/27 04:23:15;;;;;;;19.10;8.02;;;;;;;-2.26;65.33;101253.19;6173397;23;20072;-96
2022/11/27 04:25:46;;;;;;;18.33;7.90;;;;;;;-1.55;65.48;101362.78;6176149;23;20099;-95
2022/11/27 04:28:16;;;;;;;18.20;8.48;;;;;;;-2.33;65.28;101246.88;6186851;23;20039;-94
2022/11/27 04:31:13;;;;;;;15.93;8.38;;;;;;;-2.22;65.83;101275.94;6139942;23;20114;-95
2022/11/27 04:33:53;;;;;;;20.80;9.20;;;;;;;-2.38;65.97;101247.44;6120715;23;20004;-94
2022/11/27 04:36:25;;;;;;;17.35;9.10;;;;;;;-2.34;65.84;101239.88;6110390;23;20048;-94
2022/11/27 04:38:56;;;;;;;15.50;8.15;;;;;;;-2.30;65.34;101238.47;6091771;23;20027;-96
2022/11/27 04:45:54;;;;;;;20.13;8.15;;;;;;;-1.74;66.52;101364.94;6158920;23;20060;-96
2022/11/27 04:56:16;;;;;;;19.08;8.50;;;;;;;-1.58;66.18;101373.88;6186995;23;20044;-93
2022/11/27 05:01:49;;;;;;;19.77;8.48;;;;;;;-1.56;66.30;101374.50;6205430;22;20028;-95
2022/11/27 05:07:25;;;;;;;18.23;8.07;;;;;;;-2.11;66.31;101274.66;6177576;23;20107;-96
2022/11/27 05:10:29;;;;;;;18.50;8.07;;;;;;;-1.46;66.44;101381.28;6176515;23;20021;-95
2022/11/27 05:13:05;;;;;;;16.13;7.47;;;;;;;-1.52;66.68;101370.47;6146804;23;20068;-86
2022/11/27 05:15:44;;;;;;;17.80;7.68;;;;;;;-1.62;66.68;101359.13;6196738;23;20044;-94
2022/11/27 05:21:07;;;;;;;18.35;7.95;;;;;;;-2.08;66.96;101268.94;6199486;23;20105;-94
2022/11/27 05:24:13;;;;;;;21.52;7.55;;;;;;;-1.23;66.75;101388.41;6164593;23;20001;-95
2022/11/27 05:27:00;;;;;;;18.58;7.82;;;;;;;-1.73;67.15;101323.69;6158213;23;20043;-94
2022/11/27 05:29:35;;;;;;;17.23;8.40;;;;;;;-1.98;67.35;101271.34;6179165;23;20020;-94
2022/11/27 05:32:19;;;;;;;20.40;8.55;;;;;;;-1.51;67.47;101350.66;6204588;23;20028;-95
2022/11/27 05:35:49;;;;;;;19.00;8.10;;;;;;;-2.02;67.79;101262.84;6153048;23;20057;-93
2022/11/27 05:38:41;;;;;;;247.00;16.35;;;;;;;-1.53;67.93;101339.25;6048829;23;20018;-90
2022/11/27 05:41:08;;;;;;;20.25;8.75;;;;;;;-1.50;68.00;101322.81;6064485;23;20003;-94
2022/11/27 05:43:46;;;;;;;20.33;8.95;;;;;;;-0.95;67.73;101410.09;6125369;23;20029;-93
2022/11/27 05:46:14;;;;;;;18.73;8.77;;;;;;;-1.03;67.66;101391.38;6115397;23;20463;-93
2022/11/27 05:48:43;;;;;;;21.80;9.00;;;;;;;-1.33;67.91;101358.34;6109734;23;20044;-93
2022/11/27 05:51:21;;;;;;;17.55;8.57;;;;;;;-1.34;67.99;101368.22;6113813;23;20018;-94
2022/11/27 05:53:53;;;;;;;23.55;8.82;;;;;;;-1.50;68.37;101336.22;6091838;23;20348;-92
2022/11/27 05:56:30;;;;;;;18.83;8.27;;;;;;;-1.80;68.12;101273.69;6139020;23;20013;-93
2022/11/27 05:58:58;;;;;;;18.88;8.65;;;;;;;-1.64;67.75;101281.56;6089476;23;20028;-95
2022/11/27 06:01:24;;;;;;;25.17;9.32;;;;;;;-1.22;67.68;101349.84;6067174;23;20021;-93
2022/11/27 06:04:47;;;;;;;;;;;;;;;;;;;;;
2022/11/27 06:07:35;;;;;;;23.02;8.07;;;;;;;-1.31;67.69;101324.94;6198397;23;20035;-93
2022/11/27 06:13:22;;;;;;;25.55;8.30;;;;;;;-1.09;67.59;101346.47;6140066;23;20017;-93
2022/11/27 06:15:57;;;;;;;20.85;9.43;;;;;;;-1.15;67.62;101317.72;6125051;23;20024;-94
2022/11/27 06:18:24;;;;;;;22.63;9.05;;;;;;;-1.27;67.17;101288.66;6141498;23;20362;-92
2022/11/27 06:20:50;;;;;;;27.00;9.15;;;;;;;-0.82;67.10;101356.56;6140859;23;20028;-87
2022/11/27 06:23:16;;;;;;;19.83;8.43;;;;;;;-0.97;67.70;101358.41;6167443;23;20017;-88
2022/11/27 06:25:42;;;;;;;22.67;9.43;;;;;;;-0.76;67.60;101382.66;6169908;23;20025;-88
2022/11/27 06:28:08;;;;;;;23.40;8.40;;;;;;;-0.90;67.54;101359.31;6174406;23;20017;-86
2022/11/27 06:30:36;;;;;;;18.63;8.07;;;;;;;-0.78;67.55;101363.22;6172796;23;20012;-95
2022/11/27 06:33:02;;;;;;;19.60;8.35;;;;;;;-0.68;67.28;101373.66;6198335;23;20457;-85
2022/11/27 06:35:30;;;;;;;22.83;8.52;;;;;;;-1.09;67.44;101325.00;6167627;23;20017;-88
2022/11/27 06:37:56;;;;;;;16.17;8.27;;;;;;;-0.76;68.05;101406.00;6192144;23;20455;-94
2022/11/27 06:40:22;;;;;;;17.42;8.43;;;;;;;-0.68;67.80;101405.06;6190332;23;20104;-88
2022/11/27 06:42:48;;;;;;;22.67;8.85;;;;;;;-0.80;68.10;101392.09;6163805;23;20024;-88
2022/11/27 06:45:15;;;;;;;20.17;8.07;;;;;;;-0.97;68.09;101363.78;6189899;23;20017;-93
2022/11/27 06:47:41;;;;;;;20.30;8.55;;;;;;;-1.05;68.16;101342.41;6165909;23;20514;-92
2022/11/27 06:50:07;;;;;;;15.63;7.70;;;;;;;-1.21;68.04;101319.28;6169008;23;20070;-90
2022/11/27 06:52:33;;;;;;;18.05;8.60;;;;;;;-0.64;68.31;101400.97;6173514;23;20032;-94
2022/11/27 06:55:00;;;;;;;24.02;8.13;;;;;;;-0.65;67.53;101378.66;6173379;23;20063;-89
2022/11/27 06:57:28;;;;;;;19.02;9.10;;;;;;;-0.80;67.68;101367.09;6146983;23;20363;-95
2022/11/27 06:59:55;;;;;;;18.25;8.25;;;;;;;-0.92;68.06;101369.44;6191969;23;20112;-93
2022/11/27 07:02:21;;;;;;;14.40;7.95;;;;;;;-1.07;68.33;101364.06;6144188;23;20402;-94
2022/11/27 07:04:47;;;;;;;17.33;8.93;;;;;;;-0.96;68.40;101368.13;6142778;23;20073;-87
2022/11/27 07:07:14;;;;;;;20.07;8.17;;;;;;;-0.76;68.58;101390.72;6165604;23;20017;-91
2022/11/27 07:09:40;;;;;;;18.63;8.85;;;;;;;-1.06;68.07;101343.41;6194499;23;20017;-92
2022/11/27 07:12:07;;;;;;;26.55;8.73;;;;;;;-0.74;68.27;101380.59;6166177;23;20027;-92
2022/11/27 07:14:33;;;;;;;19.53;9.10;;;;;;;-0.87;68.04;101358.13;6163019;23;20017;-88
2022/11/27 07:16:59;;;;;;;23.58;9.05;;;;;;;-0.50;67.65;101402.78;6163505;23;20605;-88
2022/11/27 07:19:25;;;;;;;20.23;8.00;;;;;;;-0.87;68.21;101348.22;6166580;23;20028;-88
2022/11/27 07:21:51;;;;;;;31.10;9.55;;;;;;;-0.27;68.20;101432.19;6186060;23;20021;-90
2022/11/27 07:24:17;;;;;;;25.67;10.85;;;;;;;-0.50;67.45;101379.47;6191435;23;20044;-85
2022/11/27 07:26:43;;;;;;;25.38;9.77;;;;;;;-0.54;67.72;101385.38;6199014;23;20021;-85
2022/11/27 07:29:10;;;;;;;19.48;9.35;;;;;;;-0.75;68.35;101351.25;6203953;23;20032;-86
2022/11/27 07:31:36;;;;;;;22.90;9.68;;;;;;;-0.52;68.02;101378.81;6209456;23;20080;-87
2022/11/27 07:34:23;;;;;;;21.52;8.82;;;;;;;-0.73;68.02;101354.56;6150066;23;20021;-90
2022/11/27 07:36:49;;;;;;;20.45;9.00;;;;;;;-0.40;67.67;101371.06;6205626;23;20017;-93
2022/11/27 07:39:16;;;;;;;16.45;9.10;;;;;;;-0.53;67.81;101352.97;6204694;23;20017;-89
2022/11/27 07:41:42;;;;;;;21.00;9.32;;;;;;;-0.26;67.99;101394.41;6148734;23;20221;-93
2022/11/27 07:44:11;;;;;;;23.77;10.05;;;;;;;-0.59;67.71;101342.97;6201462;23;20017;-90
2022/11/27 07:46:37;;;;;;;18.38;9.77;;;;;;;-0.64;68.29;101348.06;6151715;23;20013;-94
2022/11/27 07:49:03;;;;;;;24.85;9.25;;;;;;;-0.28;68.50;101407.19;6211146;23;20005;-89
2022/11/27 07:51:29;;;;;;;25.13;9.15;;;;;;;-0.25;68.37;101397.91;6163330;23;20020;-93
2022/11/27 07:53:56;;;;;;;26.85;8.85;;;;;;;-0.09;68.46;101415.66;6175527;23;20021;-94
2022/11/27 07:56:22;;;;;;;20.00;9.03;;;;;;;-0.66;67.98;101320.59;6169326;23;20025;-92
2022/11/27 07:58:48;;;;;;;32.72;11.38;;;;;;;-0.49;68.21;101348.88;6166660;23;20017;-94
2022/11/27 08:01:17;;;;;;;33.05;13.30;;;;;;;-0.60;68.06;101325.19;6191424;23;20048;-94
2022/11/27 08:03:45;;;;;;;38.80;13.68;;;;;;;-0.28;67.90;101358.81;6165791;23;20020;-92
2022/11/27 08:06:24;;;;;;;38.00;12.68;;;;;;;-0.09;67.25;101388.78;6192931;23;20017;-91
2022/11/27 08:08:51;;;;;;;27.85;12.05;;;;;;;-0.08;67.84;101411.94;6141868;23;20081;-93
2022/11/27 08:11:26;;;;;;;37.08;12.77;;;;;;;-0.37;67.94;101349.19;6166818;23;20458;-90
2022/11/27 08:13:58;;;;;;;30.67;11.98;;;;;;;-0.08;68.22;101377.81;6191857;23;20025;-88
2022/11/27 08:16:25;;;;;;;24.73;11.43;;;;;;;0.08;67.37;101395.56;6166947;23;20017;-88
2022/11/27 08:18:51;;;;;;;31.65;10.90;;;;;;;0.21;67.42;101398.38;6165707;23;20454;-92
2022/11/27 08:21:18;;;;;;;25.97;9.70;;;;;;;0.08;67.22;101374.03;6142704;23;20024;-88
2022/11/27 08:23:47;;;;;;;22.40;10.18;;;;;;;0.05;67.17;101358.28;6190444;23;20657;-91
2022/11/27 08:26:13;;;;;;;20.58;9.02;;;;;;;0.29;66.78;101380.41;6164469;23;20044;-92
2022/11/27 08:28:40;;;;;;;16.58;7.93;;;;;;;0.41;66.83;101401.22;6113441;23;20019;-87
2022/11/27 08:31:11;;;;;;;21.70;9.10;;;;;;;0.50;66.53;101391.16;6190429;23;20044;-94
2022/11/27 08:33:39;;;;;;;23.42;8.30;;;;;;;0.40;66.82;101398.75;6192597;23;20163;-95
2022/11/27 08:36:07;;;;;;;16.00;8.13;;;;;;;0.24;67.04;101378.31;6194950;23;20020;-87
2022/11/27 08:38:34;;;;;;;14.20;8.25;;;;;;;0.17;67.03;101364.81;6144286;23;20021;-87
2022/11/27 08:41:03;;;;;;;23.70;8.83;;;;;;;0.43;67.06;101398.31;6164998;23;20021;-93
2022/11/27 08:43:32;;;;;;;17.52;8.13;;;;;;;0.08;67.21;101363.28;6141880;23;20256;-93
2022/11/27 08:45:59;;;;;;;15.35;7.78;;;;;;;0.01;68.11;101356.19;6165621;23;20029;-88
2022/11/27 08:48:25;;;;;;;23.80;7.32;;;;;;;0.34;67.67;101399.50;6143503;23;20100;-93
2022/11/27 08:50:55;;;;;;;20.42;7.45;;;;;;;0.22;68.06;101359.66;6169354;23;20025;-92
2022/11/27 08:53:21;;;;;;;;;;;;;;;0.56;67.63;101397.59;6141533;23;20071;-93
2022/11/27 08:55:47;;;;;;;16.77;7.80;;;;;;;0.22;66.72;101329.25;6161551;23;20536;-94
2022/11/27 08:58:15;;;;;;;16.73;8.60;;;;;;;0.50;67.09;101395.69;6192017;23;20021;-88
2022/11/27 09:00:43;;;;;;;15.45;7.22;;;;;;;0.09;66.61;101332.66;6196079;23;20021;-88
2022/11/27 09:03:11;;;;;;;16.80;7.32;;;;;;;0.56;67.48;101393.03;6166779;23;20021;-94
2022/11/27 09:05:42;;;;;;;13.80;6.82;;;;;;;0.36;67.07;101365.16;6162992;23;20467;-93
2022/11/27 09:08:15;;;;;;;14.02;6.65;;;;;;;0.11;67.22;101319.03;6165580;23;20016;-92
2022/11/27 09:11:07;;;;;;;17.67;7.28;;;;;;;0.18;66.87;101326.13;6167258;23;20076;-95
2022/11/27 09:18:05;;;;;;;14.30;6.75;;;;;;;-0.01;67.10;101289.16;6174990;22;20032;-95
2022/11/27 09:21:17;;;;;;;19.27;6.80;;;;;;;0.64;67.72;101390.22;6152381;23;20647;-94
2022/11/27 09:24:44;;;;;;;13.23;6.15;;;;;;;0.05;67.48;101285.69;6230040;23;20008;-95
2022/11/27 09:27:24;;;;;;;17.13;6.35;;;;;;;0.07;66.96;101280.13;6217035;23;20004;-94
2022/11/27 09:29:57;;;;;;;12.65;6.30;;;;;;;0.13;67.08;101298.16;6111260;23;20068;-94
2022/11/27 09:32:26;;;;;;;11.98;5.85;;;;;;;0.05;66.78;101282.16;6117808;23;20005;-95
2022/11/27 09:35:56;;;;;;;10.02;5.90;;;;;;;0.25;67.21;101311.91;6154501;23;20036;-95
2022/11/27 11:29:26;;;;;;;14.85;7.30;;;;;;;-0.32;68.15;101286.81;6218559;23;20919;-90
2022/11/27 11:32:03;;;;;;;14.10;5.60;;;;;;;-0.35;68.62;101288.03;6157438;23;20020;-96
2022/11/27 11:56:08;;;;;;;16.73;7.05;;;;;;;0.08;69.19;101403.63;6153941;23;20032;-95
2022/11/27 11:59:20;;;;;;;14.60;7.18;;;;;;;-0.01;69.83;101410.97;6119949;23;20021;-93
2022/11/27 12:02:24;;;;;;;12.77;6.50;;;;;;;-0.24;70.06;101419.22;6028818;23;20023;-90
2022/11/27 12:05:21;;;;;;;17.98;7.85;;;;;;;-0.23;70.39;101425.44;6054179;23;20023;-90
2022/11/27 12:08:46;;;;;;;12.85;6.72;;;;;;;-0.40;70.77;101429.34;6029083;23;20027;-90
2022/11/27 12:12:19;;;;;;;10.75;5.75;;;;;;;-0.45;70.86;101427.25;6017724;23;20020;-92
2022/11/27 12:15:33;;;;;;;13.98;7.50;;;;;;;-0.91;71.10;101372.94;6040999;23;20019;-95
2022/11/27 12:18:24;;;;;;;15.18;6.97;;;;;;;-0.60;71.42;101421.06;6054522;23;20019;-94
2022/11/27 12:21:35;;;;;;;12.32;5.43;;;;;;;-0.71;71.87;101420.50;6051053;23;20035;-90
2022/11/27 12:24:27;;;;;;;17.05;6.47;;;;;;;-1.07;71.58;101356.00;6044948;23;20490;-89
2022/11/27 12:27:06;;;;;;;17.25;8.55;;;;;;;-0.61;71.39;101424.78;6037861;23;20019;-89
2022/11/27 12:30:12;;;;;;;21.70;11.05;;;;;;;-0.69;71.50;101401.53;5994212;23;20025;-91
2022/11/27 12:33:18;;;;;;;17.73;7.72;;;;;;;-0.42;70.86;101431.41;5927353;24;20024;-89
2022/11/27 12:36:38;;;;;;;20.15;6.95;;;;;;;-0.54;70.75;101425.69;6013905;23;20491;-90
2022/11/27 12:39:31;;;;;;;14.38;7.00;;;;;;;-0.74;71.49;101433.50;5955164;24;20025;-91
2022/11/27 12:42:26;;;;;;;23.85;7.97;;;;;;;-0.86;72.03;101432.28;5948846;24;20047;-91
2022/11/27 12:45:21;;;;;;;12.00;6.15;;;;;;;-0.81;71.75;101438.78;5929430;24;20021;-89
2022/11/27 12:48:12;;;;;;;13.38;5.55;;;;;;;-1.00;71.92;101404.41;5952773;24;20104;-93
2022/11/27 12:50:58;;;;;;;15.13;7.95;;;;;;;-1.27;72.40;101371.00;5951281;24;20021;-90
2022/11/27 13:25:13;;;;;;;20.48;9.30;;;;;;;-1.15;73.10;101395.56;6223599;22;20035;-89
2022/11/27 13:28:22;;;;;;;27.98;10.98;;;;;;;-0.93;72.89;101423.31;6231739;23;20016;-87
2022/11/27 13:31:04;;;;;;;19.55;9.30;;;;;;;-1.33;72.83;101358.34;6085690;23;20022;-90
2022/11/27 13:33:47;;;;;;;23.15;8.25;;;;;;;-1.13;72.76;101390.81;6146569;23;20903;-90
2022/11/27 13:36:26;;;;;;;24.15;9.73;;;;;;;-0.71;72.77;101443.84;6069986;23;20048;-91
2022/11/27 13:38:59;;;;;;;21.92;10.07;;;;;;;-0.74;72.64;101442.38;6067069;23;20017;-85
2022/11/27 13:42:30;;;;;;;21.25;9.95;;;;;;;-1.03;72.56;101386.81;6051243;23;20866;-90
2022/11/27 13:45:00;;;;;;;19.80;9.55;;;;;;;-1.04;72.68;101411.19;5947208;24;20053;-91
2022/11/27 13:48:22;;;;;;;24.95;12.00;;;;;;;-0.92;72.77;101425.00;5947583;24;20020;-88
2022/11/27 13:50:48;;;;;;;25.27;11.32;;;;;;;-0.76;72.69;101457.03;5961569;24;20114;-89
2022/11/27 13:53:39;;;;;;;24.60;11.73;;;;;;;-1.05;72.72;101409.53;5988273;24;20098;-95
2022/11/27 13:56:07;;;;;;;27.33;11.77;;;;;;;-1.14;72.66;101399.91;5961460;24;20095;-88
2022/11/27 13:58:40;;;;;;;26.25;10.32;;;;;;;-1.00;72.72;101433.94;5980359;24;20053;-87
2022/11/27 14:01:48;;;;;;;20.25;10.98;;;;;;;-1.11;73.42;101424.50;5982941;24;20032;-87
2022/11/27 14:04:16;;;;;;;27.88;11.15;;;;;;;-0.90;73.61;101447.94;5983887;24;20020;-89
2022/11/27 14:07:12;;;;;;;22.10;11.20;;;;;;;-1.06;73.56;101438.22;5991764;23;20022;-86
2022/11/27 14:10:27;;;;;;;18.63;9.48;;;;;;;-0.95;73.26;101461.91;6018188;23;20019;-87
2022/11/27 14:13:10;;;;;;;22.48;11.48;;;;;;;-1.22;73.54;101390.91;6012930;23;20044;-87
2022/11/27 14:15:37;;;;;;;21.90;10.73;;;;;;;-1.07;72.71;101419.59;6019665;23;20020;-93
2022/11/27 14:22:42;;;;;;;21.55;10.27;;;;;;;-0.86;73.09;101464.50;6150411;23;20025;-91
2022/11/27 14:25:36;;;;;;;24.45;11.20;;;;;;;-0.87;73.42;101469.03;6144092;23;20017;-93
2022/11/27 14:28:35;;;;;;;27.05;12.27;;;;;;;-1.52;73.27;101338.28;6191220;23;20017;-89
2022/11/27 14:31:54;;;;;;;25.05;12.20;;;;;;;-0.75;72.98;101462.19;6138577;23;20092;-90
2022/11/27 14:34:38;;;;;;;23.92;11.88;;;;;;;-1.14;72.93;101398.03;6136735;23;20024;-91
2022/11/27 14:37:06;;;;;;;22.92;11.10;;;;;;;-1.02;73.10;101425.28;6137385;23;20051;-89
2022/11/27 14:39:36;;;;;;;22.80;9.95;;;;;;;-1.51;72.93;101356.00;6162199;23;20017;-88
2022/11/27 14:42:09;;;;;;;22.25;10.13;;;;;;;-1.24;73.07;101403.69;6169534;23;20028;-88
2022/11/27 14:44:35;;;;;;;21.40;11.35;;;;;;;-0.96;73.20;101441.47;6194924;23;20040;-88
2022/11/27 14:47:05;;;;;;;22.92;10.57;;;;;;;-1.25;72.58;101393.97;6192839;23;20017;-89
2022/11/27 14:49:57;;;;;;;16.17;8.30;;;;;;;-0.86;72.84;101468.06;6190581;23;20017;-87
2022/11/27 14:52:25;;;;;;;21.67;11.77;;;;;;;-1.06;72.99;101426.63;6162360;23;20123;-90
2022/11/27 14:55:32;;;;;;;15.95;8.55;;;;;;;-0.91;73.19;101466.94;6187526;23;20087;-90
2022/11/27 14:58:00;;;;;;;23.13;10.80;;;;;;;-1.00;73.12;101436.63;6185806;23;20731;-88
2022/11/27 15:00:28;;;;;;;21.80;10.70;;;;;;;-0.88;72.79;101445.06;6183630;23;20016;-89
2022/11/27 15:03:06;;;;;;;22.35;10.15;;;;;;;-1.12;72.39;101390.66;6166479;23;20107;-92
2022/11/27 15:05:32;;;;;;;;;;;;;;;-0.72;72.40;101472.56;6163530;23;20020;-90
2022/11/27 15:08:01;;;;;;;23.35;11.27;;;;;;;-1.08;72.66;101404.53;6145424;23;19917;-93
2022/11/27 15:10:41;;;;;;;32.22;13.15;;;;;;;-1.27;72.43;101379.06;6196266;23;20386;-92
2022/11/27 15:13:20;;;;;;;23.52;10.48;;;;;;;-1.20;72.98;101377.31;6142278;23;20399;-91
2022/11/27 15:16:11;;;;;;;19.55;9.73;;;;;;;-0.96;72.82;101411.06;6169494;23;20021;-89
2022/11/27 15:19:04;;;;;;;21.75;11.15;;;;;;;-0.66;72.75;101459.41;6166697;23;20481;-92
2022/11/27 15:21:58;;;;;;;20.88;10.55;;;;;;;-1.03;72.24;101386.81;6170515;23;20017;-93
2022/11/27 15:25:12;;;;;;;15.65;7.82;;;;;;;-0.74;72.87;101450.44;6190295;23;20524;-89
2022/11/27 15:27:51;;;;;;;22.08;10.35;;;;;;;-1.17;72.66;101376.94;6143132;23;20040;-94
2022/11/27 15:30:44;;;;;;;20.65;9.82;;;;;;;-0.74;72.73;101461.19;6133632;23;20021;-89
2022/11/27 15:33:26;;;;;;;19.15;9.90;;;;;;;-0.82;72.66;101439.81;6107449;23;20076;-90
2022/11/27 15:36:42;;;;;;;21.52;10.07;;;;;;;-0.79;72.95;101455.53;6109351;23;20021;-89
2022/11/27 15:40:04;;;;;;;23.45;10.27;;;;;;;-0.79;73.42;101460.91;6084341;23;20022;-93
2022/11/27 15:42:31;;;;;;;18.08;8.55;;;;;;;-1.02;72.92;101412.69;6095586;23;20021;-92
2022/11/27 15:45:30;;;;;;;22.23;10.57;;;;;;;-1.02;72.40;101396.56;6160891;23;20052;-95
2022/11/27 15:48:04;;;;;;;19.05;9.70;;;;;;;-1.46;72.42;101333.00;6144469;23;20044;-91